WMT5982 LATI-LIRF
Flight info
| Callsign | WMT5982 |
|---|---|
| Flight time | 1h 10m |
| Altitude | 38000 |
| Route | DIRES DCT PAPIZ DCT KAPPO DCT ROBOT DCT LUXIL DCT TOPNO DCT EKTOL DCT IPKAM DCT TEA DCT SIPRO DCT LAT |
| Aircraft | A21N/M-SDE3FGHIRWY/LB1 |
Departure
| Time | 2026-05-05 20:46 |
|---|---|
| Airport | Tirana International Airport Mother Teresa (LATI) |
Arrival
| Time | 2026-05-05 21:56 |
|---|---|
| Airport | Rome–Fiumicino Leonardo da Vinci International Airport (LIRF) |
| Time | Latitude | Longitude | Altitude | Speed | Heading |
|---|---|---|---|---|---|
| 2026-05-05 20:14 | 41.42026 | 19.71499 | 115 ft | 0 kts | 264° |
| 2026-05-05 20:37 | 41.42026 | 19.71508 | 115 ft | 2 kts | 264° |
| 2026-05-05 20:38 | 41.42028 | 19.71528 | 115 ft | 2 kts | 264° |
| 2026-05-05 20:38 | 41.42028 | 19.71548 | 115 ft | 2 kts | 292° |
| 2026-05-05 20:38 | 41.42020 | 19.71565 | 115 ft | 2 kts | 319° |
| 2026-05-05 20:38 | 41.42007 | 19.71575 | 115 ft | 1 kts | 347° |
| 2026-05-05 20:39 | 41.42000 | 19.71576 | 115 ft | 1 kts | 358° |
| 2026-05-05 20:39 | 41.41997 | 19.71576 | 115 ft | 0 kts | 355° |
| 2026-05-05 20:41 | 41.42009 | 19.71575 | 115 ft | 3 kts | 355° |
| 2026-05-05 20:41 | 41.42045 | 19.71571 | 115 ft | 7 kts | 355° |
| 2026-05-05 20:42 | 41.42108 | 19.71564 | 115 ft | 10 kts | 355° |
| 2026-05-05 20:42 | 41.42183 | 19.71554 | 114 ft | 11 kts | 354° |
| 2026-05-05 20:42 | 41.42271 | 19.71543 | 113 ft | 13 kts | 354° |
| 2026-05-05 20:42 | 41.42372 | 19.71530 | 110 ft | 15 kts | 354° |
| 2026-05-05 20:43 | 41.42477 | 19.71516 | 110 ft | 15 kts | 354° |
| 2026-05-05 20:43 | 41.42584 | 19.71503 | 110 ft | 15 kts | 355° |
| 2026-05-05 20:43 | 41.42646 | 19.71496 | 110 ft | 4 kts | 12° |
| 2026-05-05 20:43 | 41.42666 | 19.71539 | 110 ft | 6 kts | 79° |
| 2026-05-05 20:44 | 41.42671 | 19.71608 | 110 ft | 8 kts | 86° |
| 2026-05-05 20:44 | 41.42675 | 19.71678 | 110 ft | 3 kts | 85° |
| 2026-05-05 20:44 | 41.42677 | 19.71700 | 110 ft | 2 kts | 85° |
| 2026-05-05 20:44 | 41.42679 | 19.71735 | 110 ft | 6 kts | 85° |
| 2026-05-05 20:45 | 41.42686 | 19.71883 | 111 ft | 3 kts | 117° |
| 2026-05-05 20:45 | 41.42660 | 19.71900 | 112 ft | 4 kts | 171° |
| 2026-05-05 20:45 | 41.42617 | 19.71906 | 112 ft | 14 kts | 175° |
| 2026-05-05 20:46 | 41.42241 | 19.71955 | 114 ft | 91 kts | 174° |
| 2026-05-05 20:46 | 41.41386 | 19.72066 | 123 ft | 153 kts | 174° |
| 2026-05-05 20:46 | 41.40250 | 19.72218 | 544 ft | 167 kts | 174° |
| 2026-05-05 20:46 | 41.39107 | 19.72380 | 1229 ft | 169 kts | 173° |
| 2026-05-05 20:47 | 41.37943 | 19.72551 | 1933 ft | 171 kts | 172° |
| 2026-05-05 20:47 | 41.36743 | 19.72726 | 2407 ft | 179 kts | 173° |
| 2026-05-05 20:47 | 41.35459 | 19.72886 | 2806 ft | 193 kts | 174° |
| 2026-05-05 20:47 | 41.34076 | 19.73039 | 3217 ft | 207 kts | 174° |
| 2026-05-05 20:48 | 41.32597 | 19.73213 | 3632 ft | 222 kts | 174° |
| 2026-05-05 20:48 | 41.30987 | 19.73423 | 3993 ft | 243 kts | 174° |
| 2026-05-05 20:48 | 41.29251 | 19.73672 | 4481 ft | 259 kts | 173° |
| 2026-05-05 20:48 | 41.27437 | 19.73948 | 5184 ft | 266 kts | 174° |
| 2026-05-05 20:49 | 41.25587 | 19.74018 | 5948 ft | 270 kts | 192° |
| 2026-05-05 20:49 | 41.23938 | 19.72931 | 6776 ft | 270 kts | 224° |
| 2026-05-05 20:49 | 41.22900 | 19.70886 | 7612 ft | 273 kts | 248° |
| 2026-05-05 20:49 | 41.22245 | 19.68530 | 8426 ft | 276 kts | 248° |
| 2026-05-05 20:50 | 41.21508 | 19.66190 | 9251 ft | 278 kts | 246° |
| 2026-05-05 20:50 | 41.20738 | 19.63854 | 10059 ft | 280 kts | 246° |
| 2026-05-05 20:50 | 41.19945 | 19.61477 | 10667 ft | 289 kts | 246° |
| 2026-05-05 20:50 | 41.19111 | 19.58982 | 11128 ft | 302 kts | 246° |
| 2026-05-05 20:51 | 41.18253 | 19.56414 | 11739 ft | 308 kts | 247° |
| 2026-05-05 20:51 | 41.17383 | 19.53816 | 12449 ft | 311 kts | 247° |
| 2026-05-05 20:51 | 41.16505 | 19.51197 | 13181 ft | 313 kts | 248° |
| 2026-05-05 20:51 | 41.15620 | 19.48556 | 13852 ft | 317 kts | 248° |
| 2026-05-05 20:52 | 41.14726 | 19.45880 | 14506 ft | 321 kts | 248° |
| 2026-05-05 20:52 | 41.13819 | 19.43170 | 15153 ft | 324 kts | 249° |
| 2026-05-05 20:52 | 41.12903 | 19.40434 | 15796 ft | 327 kts | 249° |
| 2026-05-05 20:52 | 41.11977 | 19.37677 | 16426 ft | 330 kts | 249° |
| 2026-05-05 20:53 | 41.11042 | 19.34896 | 17057 ft | 332 kts | 248° |
| 2026-05-05 20:53 | 41.10098 | 19.32090 | 17660 ft | 335 kts | 249° |
| 2026-05-05 20:53 | 41.09148 | 19.29268 | 18263 ft | 338 kts | 249° |
| 2026-05-05 20:53 | 41.08190 | 19.26431 | 18856 ft | 340 kts | 249° |
| 2026-05-05 20:54 | 41.07224 | 19.23572 | 19435 ft | 342 kts | 249° |
| 2026-05-05 20:54 | 41.06164 | 19.20739 | 19993 ft | 346 kts | 243° |
| 2026-05-05 20:54 | 41.04833 | 19.18070 | 20531 ft | 352 kts | 237° |
| 2026-05-05 20:54 | 41.03246 | 19.15576 | 21070 ft | 356 kts | 232° |
| 2026-05-05 20:55 | 41.01581 | 19.13146 | 21587 ft | 359 kts | 232° |
| 2026-05-05 20:55 | 40.99894 | 19.10709 | 22098 ft | 361 kts | 232° |
| 2026-05-05 20:55 | 40.98199 | 19.08262 | 22597 ft | 363 kts | 232° |
| 2026-05-05 20:55 | 40.96498 | 19.05799 | 23080 ft | 365 kts | 233° |
| 2026-05-05 20:56 | 40.94788 | 19.03325 | 23595 ft | 366 kts | 233° |
| 2026-05-05 20:56 | 40.93071 | 19.00838 | 24098 ft | 368 kts | 233° |
| 2026-05-05 20:56 | 40.91349 | 18.98341 | 24583 ft | 369 kts | 234° |
| 2026-05-05 20:56 | 40.89788 | 18.95677 | 25052 ft | 367 kts | 241° |
| 2026-05-05 20:57 | 40.88520 | 18.92765 | 25494 ft | 365 kts | 249° |
| 2026-05-05 20:57 | 40.87531 | 18.89690 | 25905 ft | 365 kts | 253° |
| 2026-05-05 20:57 | 40.86613 | 18.86551 | 26314 ft | 367 kts | 253° |
| 2026-05-05 20:57 | 40.85696 | 18.83390 | 26701 ft | 370 kts | 253° |
| 2026-05-05 20:58 | 40.84775 | 18.80216 | 27084 ft | 373 kts | 253° |
| 2026-05-05 20:58 | 40.84151 | 18.78073 | 27339 ft | 374 kts | 254° |
| 2026-05-05 20:58 | 40.83474 | 18.75754 | 27610 ft | 370 kts | 253° |
| 2026-05-05 20:58 | 40.82568 | 18.72672 | 27606 ft | 354 kts | 254° |
| 2026-05-05 20:59 | 40.81671 | 18.69597 | 27258 ft | 368 kts | 253° |
| 2026-05-05 20:59 | 40.80740 | 18.66406 | 27444 ft | 375 kts | 253° |
| 2026-05-05 20:59 | 40.79797 | 18.63195 | 27821 ft | 377 kts | 253° |
| 2026-05-05 20:59 | 40.78845 | 18.59963 | 28181 ft | 380 kts | 253° |
| 2026-05-05 21:00 | 40.77888 | 18.56716 | 28544 ft | 383 kts | 253° |
| 2026-05-05 21:00 | 40.76922 | 18.53446 | 28898 ft | 385 kts | 253° |
| 2026-05-05 21:00 | 40.75948 | 18.50152 | 29247 ft | 387 kts | 253° |
| 2026-05-05 21:00 | 40.74972 | 18.46851 | 29604 ft | 389 kts | 254° |
| 2026-05-05 21:01 | 40.73980 | 18.43506 | 29937 ft | 391 kts | 254° |
| 2026-05-05 21:01 | 40.72990 | 18.40164 | 30253 ft | 394 kts | 254° |
| 2026-05-05 21:01 | 40.71992 | 18.36800 | 30569 ft | 396 kts | 254° |
| 2026-05-05 21:01 | 40.70983 | 18.33411 | 30892 ft | 399 kts | 253° |
| 2026-05-05 21:02 | 40.69973 | 18.30012 | 31217 ft | 401 kts | 254° |
| 2026-05-05 21:02 | 40.68957 | 18.26596 | 31550 ft | 403 kts | 253° |
| 2026-05-05 21:02 | 40.67932 | 18.23162 | 31845 ft | 405 kts | 253° |
| 2026-05-05 21:02 | 40.66903 | 18.19712 | 32144 ft | 407 kts | 254° |
| 2026-05-05 21:03 | 40.65865 | 18.16247 | 32457 ft | 409 kts | 254° |
| 2026-05-05 21:03 | 40.64824 | 18.12772 | 32773 ft | 410 kts | 254° |
| 2026-05-05 21:03 | 40.63850 | 18.09257 | 33085 ft | 409 kts | 257° |
| 2026-05-05 21:03 | 40.63128 | 18.05661 | 33375 ft | 407 kts | 263° |
| 2026-05-05 21:04 | 40.62673 | 18.02004 | 33668 ft | 406 kts | 268° |
| 2026-05-05 21:04 | 40.62485 | 17.98332 | 34035 ft | 402 kts | 272° |
| 2026-05-05 21:04 | 40.62557 | 17.94678 | 34469 ft | 398 kts | 278° |
| 2026-05-05 21:04 | 40.62883 | 17.91094 | 34922 ft | 394 kts | 282° |
| 2026-05-05 21:05 | 40.63438 | 17.87593 | 35366 ft | 391 kts | 285° |
| 2026-05-05 21:05 | 40.64072 | 17.84130 | 35776 ft | 390 kts | 286° |
| 2026-05-05 21:05 | 40.64714 | 17.80685 | 36155 ft | 389 kts | 286° |
| 2026-05-05 21:05 | 40.65357 | 17.77249 | 36491 ft | 388 kts | 286° |
| 2026-05-05 21:06 | 40.65998 | 17.73812 | 36748 ft | 389 kts | 286° |
| 2026-05-05 21:06 | 40.66641 | 17.70356 | 36983 ft | 390 kts | 286° |
| 2026-05-05 21:06 | 40.67284 | 17.66899 | 37213 ft | 391 kts | 286° |
| 2026-05-05 21:06 | 40.67926 | 17.63435 | 37427 ft | 391 kts | 286° |
| 2026-05-05 21:07 | 40.68568 | 17.59962 | 37612 ft | 393 kts | 286° |
| 2026-05-05 21:07 | 40.69213 | 17.56472 | 37793 ft | 394 kts | 286° |
| 2026-05-05 21:07 | 40.69857 | 17.52971 | 37978 ft | 395 kts | 286° |
| 2026-05-05 21:07 | 40.70501 | 17.49459 | 38030 ft | 397 kts | 286° |
| 2026-05-05 21:08 | 40.71801 | 17.42414 | 38036 ft | 397 kts | 286° |
| 2026-05-05 21:08 | 40.73103 | 17.35377 | 38039 ft | 396 kts | 286° |
| 2026-05-05 21:09 | 40.74402 | 17.28330 | 38039 ft | 396 kts | 285° |
| 2026-05-05 21:09 | 40.75694 | 17.21297 | 38043 ft | 396 kts | 285° |
| 2026-05-05 21:10 | 40.76988 | 17.14226 | 38039 ft | 396 kts | 285° |
| 2026-05-05 21:10 | 40.78273 | 17.07170 | 38040 ft | 396 kts | 285° |
| 2026-05-05 21:11 | 40.79555 | 17.00117 | 38039 ft | 397 kts | 285° |
| 2026-05-05 21:11 | 40.80831 | 16.93056 | 38035 ft | 397 kts | 285° |
| 2026-05-05 21:12 | 40.82105 | 16.85983 | 38037 ft | 398 kts | 285° |
| 2026-05-05 21:12 | 40.83358 | 16.78893 | 38039 ft | 398 kts | 285° |
| 2026-05-05 21:13 | 40.84609 | 16.71789 | 38036 ft | 398 kts | 285° |
| 2026-05-05 21:13 | 40.85852 | 16.64700 | 38038 ft | 397 kts | 285° |
| 2026-05-05 21:14 | 40.87090 | 16.57615 | 38033 ft | 397 kts | 285° |
| 2026-05-05 21:14 | 40.88323 | 16.50531 | 38034 ft | 398 kts | 285° |
| 2026-05-05 21:15 | 40.89554 | 16.43433 | 38037 ft | 398 kts | 284° |
| 2026-05-05 21:15 | 40.90783 | 16.36321 | 38040 ft | 399 kts | 285° |
| 2026-05-05 21:16 | 40.92011 | 16.29191 | 38034 ft | 399 kts | 284° |
| 2026-05-05 21:16 | 40.93237 | 16.22045 | 38048 ft | 401 kts | 284° |
| 2026-05-05 21:17 | 40.94459 | 16.14885 | 38046 ft | 401 kts | 284° |
| 2026-05-05 21:17 | 40.95679 | 16.07715 | 38051 ft | 401 kts | 284° |
| 2026-05-05 21:18 | 40.96901 | 16.00554 | 38053 ft | 400 kts | 284° |
| 2026-05-05 21:18 | 40.98115 | 15.93396 | 38049 ft | 400 kts | 284° |
| 2026-05-05 21:19 | 40.99331 | 15.86217 | 38040 ft | 400 kts | 284° |
| 2026-05-05 21:19 | 41.00543 | 15.79032 | 38045 ft | 401 kts | 283° |
| 2026-05-05 21:20 | 41.01747 | 15.71845 | 38046 ft | 402 kts | 283° |
| 2026-05-05 21:20 | 41.02953 | 15.64631 | 38047 ft | 402 kts | 283° |
| 2026-05-05 21:21 | 41.04156 | 15.57404 | 38045 ft | 403 kts | 283° |
| 2026-05-05 21:21 | 41.05357 | 15.50165 | 38050 ft | 404 kts | 283° |
| 2026-05-05 21:22 | 41.06555 | 15.42899 | 38049 ft | 405 kts | 283° |
| 2026-05-05 21:22 | 41.07752 | 15.35625 | 38046 ft | 405 kts | 283° |
| 2026-05-05 21:23 | 41.08943 | 15.28353 | 38053 ft | 405 kts | 282° |
| 2026-05-05 21:23 | 41.10130 | 15.21066 | 38055 ft | 406 kts | 282° |
| 2026-05-05 21:24 | 41.11314 | 15.13778 | 37805 ft | 405 kts | 282° |
| 2026-05-05 21:24 | 41.11905 | 15.10130 | 37983 ft | 407 kts | 282° |
| 2026-05-05 21:24 | 41.12499 | 15.06465 | 38022 ft | 408 kts | 282° |
| 2026-05-05 21:25 | 41.13686 | 14.99111 | 38048 ft | 410 kts | 282° |
| 2026-05-05 21:25 | 41.14872 | 14.91727 | 38089 ft | 408 kts | 282° |
| 2026-05-05 21:26 | 41.16046 | 14.84391 | 38053 ft | 407 kts | 282° |
| 2026-05-05 21:26 | 41.17221 | 14.77031 | 38049 ft | 407 kts | 282° |
| 2026-05-05 21:27 | 41.18383 | 14.69706 | 37908 ft | 406 kts | 281° |
| 2026-05-05 21:27 | 41.18962 | 14.66035 | 38010 ft | 408 kts | 282° |
| 2026-05-05 21:27 | 41.19543 | 14.62362 | 38204 ft | 408 kts | 281° |
| 2026-05-05 21:28 | 41.20121 | 14.58695 | 38102 ft | 407 kts | 282° |
| 2026-05-05 21:28 | 41.20697 | 14.55034 | 38075 ft | 407 kts | 281° |
| 2026-05-05 21:28 | 41.21849 | 14.47706 | 38060 ft | 406 kts | 281° |
| 2026-05-05 21:29 | 41.22993 | 14.40391 | 38060 ft | 406 kts | 281° |
| 2026-05-05 21:29 | 41.23563 | 14.36734 | 37669 ft | 406 kts | 281° |
| 2026-05-05 21:29 | 41.24133 | 14.33071 | 37102 ft | 403 kts | 281° |
| 2026-05-05 21:30 | 41.24695 | 14.29454 | 36472 ft | 401 kts | 281° |
| 2026-05-05 21:30 | 41.25255 | 14.25842 | 35770 ft | 401 kts | 281° |
| 2026-05-05 21:30 | 41.25813 | 14.22232 | 35075 ft | 401 kts | 281° |
| 2026-05-05 21:30 | 41.26372 | 14.18613 | 34377 ft | 401 kts | 281° |
| 2026-05-05 21:31 | 41.26929 | 14.14990 | 33700 ft | 401 kts | 281° |
| 2026-05-05 21:31 | 41.27484 | 14.11368 | 33028 ft | 400 kts | 281° |
| 2026-05-05 21:31 | 41.28033 | 14.07783 | 32607 ft | 394 kts | 281° |
| 2026-05-05 21:31 | 41.28594 | 14.04243 | 32165 ft | 390 kts | 282° |
| 2026-05-05 21:32 | 41.29327 | 14.00805 | 31725 ft | 387 kts | 287° |
| 2026-05-05 21:32 | 41.30264 | 13.97487 | 31288 ft | 384 kts | 290° |
| 2026-05-05 21:32 | 41.31396 | 13.94296 | 30845 ft | 382 kts | 295° |
| 2026-05-05 21:32 | 41.32714 | 13.91253 | 30414 ft | 380 kts | 299° |
| 2026-05-05 21:33 | 41.34169 | 13.88340 | 29995 ft | 377 kts | 301° |
| 2026-05-05 21:33 | 41.35636 | 13.85482 | 29584 ft | 374 kts | 301° |
| 2026-05-05 21:33 | 41.37098 | 13.82642 | 29153 ft | 372 kts | 301° |
| 2026-05-05 21:33 | 41.38548 | 13.79825 | 28706 ft | 369 kts | 301° |
| 2026-05-05 21:34 | 41.39989 | 13.77026 | 28256 ft | 366 kts | 301° |
| 2026-05-05 21:34 | 41.41416 | 13.74250 | 27806 ft | 363 kts | 301° |
| 2026-05-05 21:34 | 41.42823 | 13.71490 | 27350 ft | 360 kts | 299° |
| 2026-05-05 21:34 | 41.43989 | 13.68589 | 26879 ft | 354 kts | 291° |
| 2026-05-05 21:35 | 41.44807 | 13.65527 | 26388 ft | 351 kts | 283° |
| 2026-05-05 21:35 | 41.45314 | 13.62371 | 25907 ft | 348 kts | 279° |
| 2026-05-05 21:35 | 41.45727 | 13.59205 | 25439 ft | 346 kts | 278° |
| 2026-05-05 21:35 | 41.46126 | 13.56060 | 24981 ft | 344 kts | 278° |
| 2026-05-05 21:36 | 41.46557 | 13.52944 | 24522 ft | 343 kts | 283° |
| 2026-05-05 21:36 | 41.47632 | 13.50122 | 24099 ft | 348 kts | 304° |
| 2026-05-05 21:36 | 41.49209 | 13.47666 | 23767 ft | 351 kts | 306° |
| 2026-05-05 21:36 | 41.50794 | 13.45170 | 23429 ft | 355 kts | 306° |
| 2026-05-05 21:37 | 41.52369 | 13.42646 | 23096 ft | 355 kts | 306° |
| 2026-05-05 21:37 | 41.53934 | 13.40113 | 22765 ft | 354 kts | 306° |
| 2026-05-05 21:37 | 41.55486 | 13.37583 | 22434 ft | 352 kts | 306° |
| 2026-05-05 21:37 | 41.57027 | 13.35058 | 22102 ft | 351 kts | 305° |
| 2026-05-05 21:38 | 41.58566 | 13.32529 | 21769 ft | 350 kts | 305° |
| 2026-05-05 21:38 | 41.60094 | 13.30012 | 21440 ft | 349 kts | 305° |
| 2026-05-05 21:38 | 41.61616 | 13.27503 | 21117 ft | 348 kts | 305° |
| 2026-05-05 21:38 | 41.63131 | 13.25005 | 20788 ft | 346 kts | 305° |
| 2026-05-05 21:39 | 41.64640 | 13.22510 | 20465 ft | 346 kts | 305° |
| 2026-05-05 21:39 | 41.66148 | 13.20017 | 20142 ft | 345 kts | 305° |
| 2026-05-05 21:39 | 41.67651 | 13.17527 | 19822 ft | 344 kts | 305° |
| 2026-05-05 21:39 | 41.69151 | 13.15042 | 19498 ft | 343 kts | 305° |
| 2026-05-05 21:40 | 41.70662 | 13.12534 | 19196 ft | 357 kts | 305° |
| 2026-05-05 21:40 | 41.72277 | 13.09855 | 18851 ft | 383 kts | 306° |
| 2026-05-05 21:40 | 41.74005 | 13.07041 | 18353 ft | 400 kts | 307° |
| 2026-05-05 21:40 | 41.75782 | 13.04168 | 17740 ft | 402 kts | 307° |
| 2026-05-05 21:41 | 41.77562 | 13.01292 | 17025 ft | 402 kts | 307° |
| 2026-05-05 21:41 | 41.79334 | 12.98420 | 16366 ft | 399 kts | 307° |
| 2026-05-05 21:41 | 41.81082 | 12.95580 | 15850 ft | 392 kts | 307° |
| 2026-05-05 21:41 | 41.82811 | 12.92766 | 15257 ft | 389 kts | 307° |
| 2026-05-05 21:42 | 41.84513 | 12.89989 | 14630 ft | 386 kts | 307° |
| 2026-05-05 21:42 | 41.86202 | 12.87229 | 14008 ft | 383 kts | 307° |
| 2026-05-05 21:42 | 41.87882 | 12.84485 | 13381 ft | 380 kts | 307° |
| 2026-05-05 21:42 | 41.89548 | 12.81763 | 12783 ft | 378 kts | 307° |
| 2026-05-05 21:43 | 41.91200 | 12.79059 | 12167 ft | 375 kts | 307° |
| 2026-05-05 21:43 | 41.92845 | 12.76365 | 11549 ft | 372 kts | 307° |
| 2026-05-05 21:43 | 41.94474 | 12.73694 | 10962 ft | 370 kts | 307° |
| 2026-05-05 21:43 | 41.96090 | 12.71042 | 10369 ft | 367 kts | 307° |
| 2026-05-05 21:44 | 41.97694 | 12.68409 | 9850 ft | 361 kts | 307° |
| 2026-05-05 21:44 | 41.99263 | 12.65831 | 9497 ft | 352 kts | 307° |
| 2026-05-05 21:44 | 42.00787 | 12.63325 | 9250 ft | 341 kts | 307° |
| 2026-05-05 21:44 | 42.02259 | 12.60901 | 8991 ft | 330 kts | 307° |
| 2026-05-05 21:45 | 42.03688 | 12.58547 | 8755 ft | 320 kts | 307° |
| 2026-05-05 21:45 | 42.05069 | 12.56271 | 8498 ft | 305 kts | 307° |
| 2026-05-05 21:45 | 42.06372 | 12.54123 | 8342 ft | 289 kts | 307° |
| 2026-05-05 21:45 | 42.07626 | 12.52050 | 8222 ft | 284 kts | 307° |
| 2026-05-05 21:46 | 42.08870 | 12.49991 | 8089 ft | 283 kts | 306° |
| 2026-05-05 21:46 | 42.10111 | 12.47935 | 7919 ft | 282 kts | 306° |
| 2026-05-05 21:46 | 42.11345 | 12.45888 | 7740 ft | 282 kts | 306° |
| 2026-05-05 21:46 | 42.12578 | 12.43845 | 7484 ft | 281 kts | 306° |
| 2026-05-05 21:47 | 42.13803 | 12.41813 | 7178 ft | 280 kts | 306° |
| 2026-05-05 21:47 | 42.15028 | 12.39789 | 6852 ft | 278 kts | 307° |
| 2026-05-05 21:47 | 42.16243 | 12.37828 | 6721 ft | 266 kts | 307° |
| 2026-05-05 21:47 | 42.17410 | 12.35957 | 6626 ft | 253 kts | 306° |
| 2026-05-05 21:48 | 42.18203 | 12.33947 | 6480 ft | 234 kts | 275° |
| 2026-05-05 21:48 | 42.18062 | 12.31836 | 6202 ft | 226 kts | 249° |
| 2026-05-05 21:48 | 42.17543 | 12.29848 | 5912 ft | 225 kts | 248° |
| 2026-05-05 21:48 | 42.17040 | 12.27853 | 5623 ft | 225 kts | 248° |
| 2026-05-05 21:49 | 42.16554 | 12.25854 | 5335 ft | 224 kts | 249° |
| 2026-05-05 21:49 | 42.16076 | 12.23847 | 5044 ft | 224 kts | 249° |
| 2026-05-05 21:49 | 42.15605 | 12.21846 | 4759 ft | 224 kts | 249° |
| 2026-05-05 21:49 | 42.15041 | 12.19920 | 4551 ft | 216 kts | 231° |
| 2026-05-05 21:50 | 42.13862 | 12.18768 | 4353 ft | 213 kts | 195° |
| 2026-05-05 21:50 | 42.12415 | 12.18423 | 4077 ft | 210 kts | 190° |
| 2026-05-05 21:50 | 42.10986 | 12.18034 | 3786 ft | 209 kts | 192° |
| 2026-05-05 21:50 | 42.09579 | 12.17612 | 3506 ft | 206 kts | 192° |
| 2026-05-05 21:51 | 42.08185 | 12.17189 | 3236 ft | 204 kts | 192° |
| 2026-05-05 21:51 | 42.06791 | 12.16942 | 2946 ft | 202 kts | 175° |
| 2026-05-05 21:51 | 42.05444 | 12.17346 | 2884 ft | 194 kts | 164° |
| 2026-05-05 21:51 | 42.04159 | 12.17902 | 2907 ft | 194 kts | 163° |
| 2026-05-05 21:52 | 42.01592 | 12.19032 | 2520 ft | 192 kts | 162° |
| 2026-05-05 21:52 | 42.00326 | 12.19579 | 2493 ft | 192 kts | 162° |
| 2026-05-05 21:52 | 41.99047 | 12.20121 | 2489 ft | 193 kts | 162° |
| 2026-05-05 21:53 | 41.97767 | 12.20656 | 2486 ft | 192 kts | 163° |
| 2026-05-05 21:53 | 41.96486 | 12.21189 | 2392 ft | 193 kts | 162° |
| 2026-05-05 21:53 | 41.95203 | 12.21722 | 2152 ft | 192 kts | 162° |
| 2026-05-05 21:53 | 41.93952 | 12.22242 | 1989 ft | 180 kts | 162° |
| 2026-05-05 21:54 | 41.92804 | 12.22720 | 1740 ft | 164 kts | 162° |
| 2026-05-05 21:54 | 41.91757 | 12.23156 | 1492 ft | 151 kts | 161° |
| 2026-05-05 21:54 | 41.90790 | 12.23560 | 1267 ft | 141 kts | 161° |
| 2026-05-05 21:54 | 41.89861 | 12.23948 | 1085 ft | 139 kts | 162° |
| 2026-05-05 21:55 | 41.88937 | 12.24332 | 912 ft | 139 kts | 161° |
| 2026-05-05 21:55 | 41.88015 | 12.24715 | 746 ft | 138 kts | 162° |
| 2026-05-05 21:55 | 41.87096 | 12.25098 | 561 ft | 138 kts | 161° |
| 2026-05-05 21:55 | 41.86181 | 12.25483 | 385 ft | 138 kts | 161° |
| 2026-05-05 21:56 | 41.85272 | 12.25866 | 197 ft | 136 kts | 161° |
| 2026-05-05 21:56 | 41.84372 | 12.26243 | 23 ft | 134 kts | 161° |
| 2026-05-05 21:56 | 41.83574 | 12.26577 | 9 ft | 98 kts | 162° |
| 2026-05-05 21:56 | 41.83090 | 12.26780 | 9 ft | 44 kts | 162° |
| 2026-05-05 21:57 | 41.82888 | 12.26855 | 9 ft | 26 kts | 169° |
| 2026-05-05 21:57 | 41.82711 | 12.26867 | 9 ft | 24 kts | 186° |
| 2026-05-05 21:57 | 41.82570 | 12.26829 | 9 ft | 8 kts | 192° |
| 2026-05-05 21:57 | 41.82510 | 12.26812 | 9 ft | 10 kts | 192° |
| 2026-05-05 21:58 | 41.82423 | 12.26786 | 7 ft | 15 kts | 192° |
| 2026-05-05 21:58 | 41.82312 | 12.26785 | 5 ft | 16 kts | 168° |
| 2026-05-05 21:58 | 41.82202 | 12.26829 | 5 ft | 16 kts | 162° |
| 2026-05-05 21:58 | 41.82092 | 12.26876 | 7 ft | 16 kts | 161° |
| 2026-05-05 21:59 | 41.81980 | 12.26922 | 9 ft | 17 kts | 162° |
| 2026-05-05 21:59 | 41.81858 | 12.26973 | 9 ft | 19 kts | 163° |
| 2026-05-05 21:59 | 41.81721 | 12.27030 | 9 ft | 21 kts | 162° |
| 2026-05-05 21:59 | 41.81571 | 12.27093 | 9 ft | 23 kts | 162° |
| 2026-05-05 22:00 | 41.81408 | 12.27161 | 9 ft | 25 kts | 162° |
| 2026-05-05 22:00 | 41.81244 | 12.27230 | 9 ft | 24 kts | 162° |
| 2026-05-05 22:00 | 41.81087 | 12.27296 | 9 ft | 23 kts | 162° |
| 2026-05-05 22:00 | 41.80937 | 12.27350 | 9 ft | 21 kts | 176° |
| 2026-05-05 22:01 | 41.80788 | 12.27324 | 9 ft | 21 kts | 189° |
| 2026-05-05 22:01 | 41.80663 | 12.27242 | 9 ft | 20 kts | 237° |
| 2026-05-05 22:01 | 41.80609 | 12.27063 | 9 ft | 21 kts | 250° |
| 2026-05-05 22:01 | 41.80556 | 12.26869 | 9 ft | 23 kts | 249° |
| 2026-05-05 22:02 | 41.80500 | 12.26666 | 9 ft | 23 kts | 250° |
| 2026-05-05 22:02 | 41.80448 | 12.26478 | 12 ft | 20 kts | 249° |
| 2026-05-05 22:02 | 41.80400 | 12.26375 | 12 ft | 12 kts | 207° |
| 2026-05-05 22:02 | 41.80313 | 12.26387 | 12 ft | 13 kts | 160° |
| 2026-05-05 22:03 | 41.80218 | 12.26405 | 12 ft | 14 kts | 194° |
| 2026-05-05 22:03 | 41.80118 | 12.26347 | 12 ft | 16 kts | 204° |
| 2026-05-05 22:03 | 41.80006 | 12.26278 | 13 ft | 18 kts | 205° |
| 2026-05-05 22:03 | 41.79881 | 12.26203 | 15 ft | 20 kts | 204° |
| 2026-05-05 22:04 | 41.79752 | 12.26112 | 18 ft | 20 kts | 212° |
| 2026-05-05 22:04 | 41.79630 | 12.26030 | 19 ft | 19 kts | 204° |
| 2026-05-05 22:04 | 41.79568 | 12.25991 | 20 ft | 2 kts | 218° |
| 2026-05-05 22:04 | 41.79566 | 12.25963 | 20 ft | 4 kts | 285° |
| 2026-05-05 22:05 | 41.79578 | 12.25928 | 20 ft | 4 kts | 294° |
| 2026-05-05 22:05 | 41.79580 | 12.25923 | 20 ft | 0 kts | 294° |